createdAt,value
2023-09-06T00:02:05.212Z,24.39
2023-09-06T00:04:52.321Z,24.35
2023-09-06T00:07:39.184Z,24.32
2023-09-06T00:10:26.474Z,24.28
2023-09-06T00:13:14.178Z,24.24
2023-09-06T00:16:02.293Z,24.22
2023-09-06T00:18:49.255Z,24.19
2023-09-06T00:21:41.892Z,24.15
2023-09-06T00:24:28.872Z,24.13
2023-09-06T00:27:16.047Z,24.08
2023-09-06T00:30:02.955Z,24.05
2023-09-06T00:32:54.750Z,24.02
2023-09-06T00:35:42.099Z,23.97
2023-09-06T00:38:30.157Z,23.93
2023-09-06T00:41:17.324Z,23.89
2023-09-06T00:44:05.088Z,23.87
2023-09-06T00:46:52.011Z,23.83
2023-09-06T00:49:39.199Z,23.80
2023-09-06T00:52:26.448Z,23.76
2023-09-06T00:55:13.598Z,23.73
2023-09-06T00:58:00.545Z,23.70
2023-09-06T01:00:49.223Z,23.67
2023-09-06T01:03:36.464Z,23.64
2023-09-06T01:06:27.597Z,23.60
2023-09-06T01:09:15.570Z,23.58
2023-09-06T01:12:02.399Z,23.54
2023-09-06T01:14:49.311Z,23.50
2023-09-06T01:17:38.131Z,23.47
2023-09-06T01:20:53.358Z,23.45
2023-09-06T01:23:41.562Z,23.41
2023-09-06T01:26:28.533Z,23.38
2023-09-06T01:29:15.448Z,23.36
2023-09-06T01:32:02.357Z,23.31
2023-09-06T01:34:49.236Z,23.27
2023-09-06T01:37:38.387Z,23.23
2023-09-06T01:40:27.612Z,23.21
2023-09-06T01:43:14.645Z,23.17
2023-09-06T01:46:01.631Z,23.14
2023-09-06T01:48:48.627Z,23.11
2023-09-06T01:51:36.139Z,23.08
2023-09-06T01:54:22.972Z,23.03
2023-09-06T01:57:09.868Z,22.99
2023-09-06T01:59:56.730Z,22.96
2023-09-06T02:02:43.613Z,22.92
2023-09-06T02:05:33.486Z,22.87
2023-09-06T02:08:20.349Z,22.83
2023-09-06T02:11:07.829Z,22.80
2023-09-06T02:13:54.830Z,22.77
2023-09-06T02:16:41.838Z,22.74
2023-09-06T02:19:28.798Z,22.72
2023-09-06T02:22:15.646Z,22.70
2023-09-06T02:25:02.613Z,22.66
2023-09-06T02:27:49.577Z,22.61
2023-09-06T02:30:37.943Z,22.56
2023-09-06T02:33:26.382Z,22.50
2023-09-06T02:36:13.440Z,22.46
2023-09-06T02:39:00.252Z,22.45
2023-09-06T02:41:47.917Z,22.42
2023-09-06T02:44:34.765Z,22.41
2023-09-06T02:47:29.746Z,22.39
2023-09-06T02:50:18.090Z,22.34
2023-09-06T02:53:05.185Z,22.29
2023-09-06T02:55:53.508Z,22.25
2023-09-06T02:58:43.057Z,22.19
2023-09-06T03:01:31.733Z,22.15
2023-09-06T03:04:18.851Z,22.11
2023-09-06T03:07:09.792Z,22.08
2023-09-06T03:09:57.919Z,22.05
2023-09-06T03:12:45.153Z,21.98
2023-09-06T03:15:32.554Z,21.94
2023-09-06T03:18:23.870Z,21.91
2023-09-06T03:21:11.834Z,21.86
2023-09-06T03:24:00.548Z,21.83
2023-09-06T03:26:47.413Z,21.80
2023-09-06T03:29:39.955Z,21.78
2023-09-06T03:32:27.362Z,21.75
2023-09-06T03:35:17.305Z,21.69
2023-09-06T03:38:09.365Z,21.63
2023-09-06T03:40:56.392Z,21.60
2023-09-06T03:43:43.970Z,21.56
2023-09-06T03:46:30.854Z,21.50
2023-09-06T03:49:17.842Z,21.48
2023-09-06T03:52:05.923Z,21.46
2023-09-06T03:54:52.837Z,21.43
2023-09-06T03:57:40.107Z,21.40
2023-09-06T04:00:32.377Z,21.38
2023-09-06T04:03:23.947Z,21.33
2023-09-06T04:06:12.322Z,21.29
2023-09-06T04:08:59.627Z,21.25
2023-09-06T04:11:47.825Z,21.21
2023-09-06T04:14:39.787Z,21.14
2023-09-06T04:17:28.843Z,21.08
2023-09-06T04:20:20.567Z,21.03
2023-09-06T04:23:09.762Z,21.02
2023-09-06T04:25:56.760Z,21.01
2023-09-06T04:28:43.767Z,20.98
2023-09-06T04:31:31.388Z,20.95
2023-09-06T04:34:18.328Z,20.92
2023-09-06T04:37:05.180Z,20.91
2023-09-06T04:39:54.446Z,20.87
2023-09-06T04:42:42.381Z,20.85
2023-09-06T04:45:29.279Z,20.80
2023-09-06T04:48:18.200Z,20.76
2023-09-06T04:51:06.277Z,20.73
2023-09-06T04:53:53.631Z,20.73
2023-09-06T04:56:41.636Z,20.71
2023-09-06T04:59:28.502Z,20.68
2023-09-06T05:02:17.173Z,20.67
2023-09-06T05:05:04.299Z,20.64
2023-09-06T05:07:51.679Z,20.61
2023-09-06T05:10:40.260Z,20.55
2023-09-06T05:13:29.750Z,20.52
2023-09-06T05:16:17.874Z,20.50
2023-09-06T05:19:04.786Z,20.46
2023-09-06T05:21:51.645Z,20.44
2023-09-06T05:24:38.549Z,20.49
2023-09-06T05:27:28.643Z,20.59
2023-09-06T05:30:15.884Z,21.11
2023-09-06T05:33:04.136Z,22.00
2023-09-06T05:35:51.018Z,21.69
2023-09-06T05:38:37.905Z,21.48
2023-09-06T05:41:24.786Z,21.34
2023-09-06T05:44:11.746Z,21.24
2023-09-06T05:46:58.810Z,21.15
2023-09-06T05:49:45.827Z,21.07
2023-09-06T05:52:32.946Z,21.00
2023-09-06T05:55:19.778Z,20.94
2023-09-06T05:58:06.714Z,20.88
2023-09-06T06:00:56.302Z,20.84
2023-09-06T06:03:44.289Z,20.80
2023-09-06T06:06:31.415Z,20.77
2023-09-06T06:09:22.895Z,20.73
2023-09-06T06:12:11.237Z,20.70
2023-09-06T06:15:01.162Z,20.70
2023-09-06T06:17:49.061Z,20.71
2023-09-06T06:20:44.031Z,20.70
2023-09-06T06:23:31.611Z,20.68
2023-09-06T06:26:20.642Z,20.69
2023-09-06T06:29:07.805Z,20.72
2023-09-06T06:31:54.898Z,20.75
2023-09-06T06:34:44.304Z,20.78
2023-09-06T06:37:31.140Z,20.78
2023-09-06T06:40:18.003Z,20.78
2023-09-06T06:43:05.063Z,20.79
2023-09-06T06:45:56.559Z,20.80
2023-09-06T06:48:43.772Z,20.82
2023-09-06T06:51:36.070Z,20.86
2023-09-06T06:54:24.620Z,20.88
2023-09-06T06:57:11.451Z,20.95
2023-09-06T07:00:09.997Z,20.97
2023-09-06T07:02:59.702Z,21.00
2023-09-06T07:05:46.799Z,21.02
2023-09-06T07:08:33.757Z,21.07
2023-09-06T07:11:21.225Z,21.10
2023-09-06T07:14:08.362Z,21.14
2023-09-06T07:16:55.545Z,21.17
2023-09-06T07:19:43.222Z,21.24
2023-09-06T07:22:30.343Z,21.24
2023-09-06T07:25:17.395Z,21.30
2023-09-06T07:28:05.070Z,21.32
2023-09-06T07:30:52.330Z,21.38
2023-09-06T07:33:39.991Z,21.41
2023-09-06T07:36:26.980Z,21.46
2023-09-06T07:39:13.915Z,21.48
2023-09-06T07:42:00.817Z,21.50
2023-09-06T07:44:47.690Z,21.56
2023-09-06T07:47:35.383Z,21.60
2023-09-06T07:50:22.414Z,21.68
2023-09-06T07:53:10.012Z,21.73
2023-09-06T07:55:57.100Z,21.79
2023-09-06T07:58:44.179Z,21.83
2023-09-06T08:01:31.159Z,21.90
2023-09-06T08:04:22.101Z,21.97
2023-09-06T08:07:09.537Z,22.00
2023-09-06T08:09:57.039Z,22.05
2023-09-06T08:12:44.020Z,22.12
2023-09-06T08:15:32.121Z,22.14
2023-09-06T08:18:19.024Z,22.21
2023-09-06T08:21:06.233Z,22.24
2023-09-06T08:23:53.192Z,22.27
2023-09-06T08:26:40.058Z,22.32
2023-09-06T08:29:26.950Z,22.38
2023-09-06T08:32:13.850Z,22.43
2023-09-06T08:35:00.822Z,22.49
2023-09-06T08:37:47.649Z,22.55
2023-09-06T08:40:34.618Z,22.59
2023-09-06T08:43:22.289Z,22.64
2023-09-06T08:46:23.430Z,22.68
2023-09-06T08:49:10.946Z,22.71
2023-09-06T08:51:59.743Z,22.76
2023-09-06T08:54:47.706Z,22.81
2023-09-06T08:57:35.682Z,22.87
2023-09-06T09:00:25.078Z,22.92
2023-09-06T09:03:12.301Z,22.97
2023-09-06T09:06:06.116Z,23.04
2023-09-06T09:08:52.937Z,23.09
2023-09-06T09:11:44.751Z,23.14
2023-09-06T09:14:31.589Z,23.21
2023-09-06T09:17:21.302Z,23.27
2023-09-06T09:20:10.988Z,23.32
2023-09-06T09:23:04.347Z,23.38
2023-09-06T09:25:51.524Z,23.42
2023-09-06T09:28:38.556Z,23.50
2023-09-06T09:31:28.457Z,23.55
2023-09-06T09:34:15.498Z,23.59
2023-09-06T09:37:02.945Z,23.66
2023-09-06T09:39:49.954Z,23.70
2023-09-06T09:42:36.860Z,23.75
2023-09-06T09:45:26.065Z,23.80
2023-09-06T09:48:13.188Z,23.86
2023-09-06T09:51:05.952Z,23.91
2023-09-06T09:53:55.826Z,23.97
2023-09-06T09:56:46.769Z,24.07
2023-09-06T09:59:35.124Z,24.14
2023-09-06T10:02:31.426Z,24.21
2023-09-06T10:05:22.362Z,24.27
2023-09-06T10:08:10.634Z,24.33
2023-09-06T10:10:57.556Z,24.37
2023-09-06T10:13:44.859Z,24.42
2023-09-06T10:16:32.831Z,24.46
2023-09-06T10:19:21.304Z,24.52
2023-09-06T10:22:10.582Z,24.54
2023-09-06T10:25:07.444Z,24.59
2023-09-06T10:28:00.559Z,24.64
2023-09-06T10:30:55.024Z,24.70
2023-09-06T10:33:43.365Z,24.77
2023-09-06T10:36:31.469Z,24.82
2023-09-06T10:39:22.425Z,24.89
2023-09-06T10:42:09.887Z,24.95
2023-09-06T10:44:56.730Z,25.01
2023-09-06T10:47:44.015Z,25.06
2023-09-06T10:50:31.243Z,25.12
2023-09-06T10:53:21.257Z,25.19
2023-09-06T10:56:08.485Z,25.29
2023-09-06T10:58:58.563Z,25.35
2023-09-06T11:02:07.590Z,25.38
2023-09-06T11:05:10.326Z,25.40
2023-09-06T11:07:57.598Z,25.45
2023-09-06T11:10:44.528Z,25.53
2023-09-06T11:13:34.075Z,25.75
2023-09-06T11:16:21.996Z,26.07
2023-09-06T11:19:09.670Z,26.30
2023-09-06T11:22:07.471Z,26.56
2023-09-06T11:24:54.337Z,26.76
2023-09-06T11:27:41.236Z,26.94
2023-09-06T11:30:32.704Z,27.02
2023-09-06T11:33:19.644Z,27.04
2023-09-06T11:36:06.676Z,27.00
2023-09-06T11:38:54.315Z,27.02
2023-09-06T11:41:42.648Z,27.05
2023-09-06T11:44:29.595Z,27.04
2023-09-06T11:47:20.799Z,27.00
2023-09-06T11:50:10.155Z,27.01
2023-09-06T11:52:59.859Z,26.96
2023-09-06T11:55:50.507Z,26.87
2023-09-06T11:58:46.488Z,26.78
2023-09-06T12:01:40.850Z,26.78
2023-09-06T12:04:29.880Z,26.77
2023-09-06T12:07:17.205Z,26.86
2023-09-06T12:10:05.968Z,26.91
2023-09-06T12:12:53.161Z,26.96
2023-09-06T12:15:41.080Z,26.95
2023-09-06T12:18:30.268Z,27.00
2023-09-06T12:21:17.705Z,27.08
2023-09-06T12:24:05.074Z,27.00
2023-09-06T12:26:52.057Z,26.90
2023-09-06T12:29:39.847Z,26.93
2023-09-06T12:32:29.711Z,26.99
2023-09-06T12:35:17.025Z,27.02
2023-09-06T12:38:04.048Z,26.95
2023-09-06T12:40:51.356Z,26.96
2023-09-06T12:43:38.444Z,26.94
2023-09-06T12:46:25.391Z,26.97
2023-09-06T12:49:12.413Z,26.97
2023-09-06T12:51:59.259Z,27.01
2023-09-06T12:54:46.111Z,27.00
2023-09-06T12:57:33.052Z,27.09
2023-09-06T13:00:20.116Z,27.03
2023-09-06T13:03:07.504Z,27.05
2023-09-06T13:05:56.758Z,27.11
2023-09-06T13:08:45.528Z,27.25
2023-09-06T13:11:33.002Z,27.26
2023-09-06T13:14:20.756Z,27.22
2023-09-06T13:17:07.698Z,27.20
2023-09-06T13:19:55.786Z,27.21
2023-09-06T13:22:43.307Z,27.21
2023-09-06T13:25:30.318Z,27.23
2023-09-06T13:28:18.787Z,27.18
2023-09-06T13:31:07.154Z,27.17
2023-09-06T13:33:54.980Z,27.18
2023-09-06T13:36:41.838Z,27.33
2023-09-06T13:39:29.045Z,27.39
2023-09-06T13:42:17.310Z,27.37
2023-09-06T13:45:05.633Z,27.41
2023-09-06T13:47:52.649Z,27.39
2023-09-06T13:50:39.648Z,27.35
2023-09-06T13:53:26.703Z,27.38
2023-09-06T13:56:14.205Z,27.41
2023-09-06T13:59:01.134Z,27.44
2023-09-06T14:01:48.165Z,27.52
2023-09-06T14:04:36.074Z,27.52
2023-09-06T14:07:23.145Z,27.57
2023-09-06T14:10:10.231Z,27.62
2023-09-06T14:12:57.108Z,27.63
2023-09-06T14:15:44.017Z,27.63
2023-09-06T14:18:31.166Z,27.61
2023-09-06T14:21:21.857Z,27.65
2023-09-06T14:24:09.188Z,27.66
2023-09-06T14:26:56.091Z,27.60
2023-09-06T14:29:42.951Z,27.60
2023-09-06T14:32:29.942Z,27.65
2023-09-06T14:35:16.829Z,27.68
2023-09-06T14:38:03.931Z,27.68
2023-09-06T14:40:50.890Z,27.64
2023-09-06T14:43:37.760Z,27.62
2023-09-06T14:46:24.785Z,27.64
2023-09-06T14:49:13.312Z,27.69
2023-09-06T14:52:01.996Z,27.73
2023-09-06T14:54:49.318Z,27.88
2023-09-06T14:57:36.218Z,27.84
2023-09-06T15:00:23.332Z,27.84
2023-09-06T15:03:10.357Z,27.79
2023-09-06T15:05:58.057Z,27.78
2023-09-06T15:08:45.553Z,27.83
2023-09-06T15:11:32.504Z,27.89
2023-09-06T15:14:19.919Z,27.89
2023-09-06T15:17:08.542Z,27.89
2023-09-06T15:19:55.569Z,27.83
2023-09-06T15:22:42.429Z,27.86
2023-09-06T15:25:30.522Z,27.82
2023-09-06T15:28:17.341Z,27.81
2023-09-06T15:31:04.223Z,27.90
2023-09-06T15:33:51.198Z,28.02
2023-09-06T15:36:38.339Z,28.11
2023-09-06T15:39:25.184Z,28.18
2023-09-06T15:42:12.153Z,28.21
2023-09-06T15:44:59.285Z,28.23
2023-09-06T15:47:46.804Z,28.26
2023-09-06T15:50:33.863Z,28.27
2023-09-06T15:53:20.797Z,28.27
2023-09-06T15:56:07.614Z,28.27
2023-09-06T15:58:55.199Z,28.29
2023-09-06T16:01:42.861Z,28.28
2023-09-06T16:04:29.962Z,28.07
2023-09-06T16:07:16.889Z,27.97
2023-09-06T16:10:04.857Z,27.90
2023-09-06T16:12:51.758Z,27.87
2023-09-06T16:15:38.613Z,27.81
2023-09-06T16:18:25.691Z,27.81
2023-09-06T16:21:12.541Z,27.82
2023-09-06T16:24:03.312Z,27.75
2023-09-06T16:26:53.036Z,27.73
2023-09-06T16:29:40.098Z,27.73
2023-09-06T16:32:27.061Z,27.75
2023-09-06T16:35:14.048Z,27.70
2023-09-06T16:38:00.940Z,27.71
2023-09-06T16:40:47.922Z,27.72
2023-09-06T16:43:34.788Z,27.69
2023-09-06T16:46:21.761Z,27.72
2023-09-06T16:49:08.800Z,27.75
2023-09-06T16:51:55.802Z,27.73
2023-09-06T16:54:42.677Z,27.65
2023-09-06T16:57:29.520Z,27.57
2023-09-06T17:00:16.450Z,27.55
2023-09-06T17:03:03.598Z,27.50
2023-09-06T17:05:50.661Z,27.46
2023-09-06T17:08:37.576Z,27.42
2023-09-06T17:11:24.476Z,27.38
2023-09-06T17:14:12.601Z,27.36
2023-09-06T17:16:59.708Z,27.30
2023-09-06T17:19:46.659Z,27.29
2023-09-06T17:22:33.567Z,27.36
2023-09-06T17:25:22.019Z,27.43
2023-09-06T17:28:10.068Z,27.51
2023-09-06T17:30:59.620Z,27.60
2023-09-06T17:33:46.668Z,27.67
2023-09-06T17:36:35.691Z,27.72
2023-09-06T17:39:24.383Z,27.77
2023-09-06T17:42:11.215Z,27.82
2023-09-06T17:45:00.001Z,27.87
2023-09-06T17:47:48.131Z,27.89
2023-09-06T17:50:37.855Z,27.87
2023-09-06T17:53:30.838Z,27.87
2023-09-06T17:56:18.976Z,27.92
2023-09-06T17:59:08.397Z,27.96
2023-09-06T18:01:55.811Z,27.97
2023-09-06T18:04:42.985Z,27.98
2023-09-06T18:07:29.898Z,27.98
2023-09-06T18:10:16.736Z,27.99
2023-09-06T18:13:07.353Z,28.00
2023-09-06T18:15:54.720Z,28.00
2023-09-06T18:18:41.995Z,28.00
2023-09-06T18:21:29.981Z,28.01
2023-09-06T18:24:16.832Z,28.01
2023-09-06T18:27:08.499Z,28.01
2023-09-06T18:29:55.734Z,28.01
2023-09-06T18:32:43.673Z,28.01
2023-09-06T18:35:30.652Z,28.01
2023-09-06T18:38:17.525Z,28.00
2023-09-06T18:41:10.290Z,28.00
2023-09-06T18:43:58.362Z,27.99
2023-09-06T18:46:45.390Z,27.97
2023-09-06T18:49:36.473Z,27.97
2023-09-06T18:52:23.982Z,27.95
2023-09-06T18:55:11.566Z,27.94
2023-09-06T18:58:05.533Z,27.92
2023-09-06T19:00:53.448Z,27.90
2023-09-06T19:03:42.206Z,27.88
2023-09-06T19:06:35.280Z,27.86
2023-09-06T19:09:22.154Z,27.83
2023-09-06T19:12:09.068Z,27.83
2023-09-06T19:14:56.026Z,27.81
2023-09-06T19:17:45.135Z,27.80
2023-09-06T19:20:32.716Z,27.75
2023-09-06T19:23:21.826Z,27.73
2023-09-06T19:26:10.038Z,27.69
2023-09-06T19:28:57.061Z,27.66
2023-09-06T19:31:44.078Z,27.65
2023-09-06T19:34:31.041Z,27.64
2023-09-06T19:37:18.809Z,27.62
2023-09-06T19:40:06.391Z,27.62
2023-09-06T19:42:54.335Z,27.60
2023-09-06T19:45:41.263Z,27.59
2023-09-06T19:48:28.145Z,27.57
2023-09-06T19:51:15.046Z,27.53
2023-09-06T19:54:02.891Z,27.51
2023-09-06T19:56:49.806Z,27.50
2023-09-06T19:59:37.814Z,27.48
2023-09-06T20:02:24.889Z,27.44
2023-09-06T20:05:12.327Z,27.43
2023-09-06T20:07:59.978Z,27.42
2023-09-06T20:10:47.504Z,27.39
2023-09-06T20:13:34.370Z,27.36
2023-09-06T20:16:21.781Z,27.35
2023-09-06T20:19:08.747Z,27.32
2023-09-06T20:21:55.579Z,27.30
2023-09-06T20:24:42.417Z,27.26
2023-09-06T20:27:31.503Z,27.25
2023-09-06T20:30:18.485Z,27.22
2023-09-06T20:33:05.624Z,27.21
2023-09-06T20:35:52.713Z,27.18
2023-09-06T20:38:39.646Z,27.14
2023-09-06T20:41:26.592Z,27.10
2023-09-06T20:44:13.548Z,27.08
2023-09-06T20:47:01.906Z,27.07
2023-09-06T20:49:49.096Z,27.05
2023-09-06T20:52:36.115Z,27.03
2023-09-06T20:55:23.072Z,26.99
2023-09-06T20:58:09.922Z,26.97
2023-09-06T21:00:56.818Z,26.94
2023-09-06T21:03:43.909Z,26.91
2023-09-06T21:06:32.259Z,26.89
2023-09-06T21:09:18.961Z,26.85
2023-09-06T21:12:06.101Z,26.83
2023-09-06T21:14:53.020Z,26.81
2023-09-06T21:17:40.049Z,26.77
2023-09-06T21:20:28.984Z,26.75
2023-09-06T21:23:15.904Z,26.71
2023-09-06T21:26:06.053Z,26.70
2023-09-06T21:28:52.956Z,26.67
2023-09-06T21:31:39.875Z,26.64
2023-09-06T21:34:27.003Z,26.61
2023-09-06T21:37:14.090Z,26.59
2023-09-06T21:40:01.245Z,26.55
2023-09-06T21:42:48.104Z,26.52
2023-09-06T21:45:37.083Z,26.49
2023-09-06T21:48:25.328Z,26.46
2023-09-06T21:51:17.225Z,26.42
2023-09-06T21:54:04.220Z,26.39
2023-09-06T21:56:51.067Z,26.36
2023-09-06T21:59:37.931Z,26.35
2023-09-06T22:02:24.795Z,26.33
2023-09-06T22:05:11.748Z,26.30
2023-09-06T22:07:58.685Z,26.28
2023-09-06T22:10:45.581Z,26.25
2023-09-06T22:13:32.717Z,26.22
2023-09-06T22:16:19.783Z,26.20
2023-09-06T22:19:07.557Z,26.19
2023-09-06T22:21:54.565Z,26.15
2023-09-06T22:24:41.539Z,26.12
2023-09-06T22:27:28.429Z,26.08
2023-09-06T22:30:15.328Z,26.05
2023-09-06T22:33:02.265Z,26.03
2023-09-06T22:35:49.164Z,26.01
2023-09-06T22:38:36.437Z,25.99
2023-09-06T22:41:23.332Z,25.95
2023-09-06T22:44:10.210Z,25.93
2023-09-06T22:46:57.155Z,25.90
2023-09-06T22:49:44.228Z,25.87
2023-09-06T22:52:31.440Z,25.83
2023-09-06T22:55:18.429Z,25.81
2023-09-06T22:58:05.451Z,25.77
2023-09-06T23:00:52.539Z,25.75
2023-09-06T23:03:43.327Z,25.71
2023-09-06T23:06:30.875Z,25.67
2023-09-06T23:09:20.295Z,25.63
2023-09-06T23:12:07.879Z,25.60
2023-09-06T23:14:54.803Z,25.57
2023-09-06T23:17:45.994Z,25.55
2023-09-06T23:20:37.645Z,25.53
2023-09-06T23:23:26.303Z,25.48
2023-09-06T23:26:15.078Z,25.47
2023-09-06T23:29:07.506Z,25.42
2023-09-06T23:31:55.663Z,25.39
2023-09-06T23:34:46.275Z,25.36
2023-09-06T23:37:33.453Z,25.34
2023-09-06T23:40:24.836Z,25.30
2023-09-06T23:43:11.985Z,25.27
2023-09-06T23:45:58.946Z,25.23
2023-09-06T23:48:46.229Z,25.21
2023-09-06T23:51:33.115Z,25.17
2023-09-06T23:54:24.817Z,25.14
2023-09-06T23:57:18.781Z,25.10
